Time;durP1;ratioP1;P1;durP2;ratioP2;P2;SDS_P1;SDS_P2;PMS_P1;PMS_P2;Temp;Humidity;BMP_temperature;BMP_pressure;BME280_temperature;BME280_humidity;BME280_pressure;Samples;Min_cycle;Max_cycle;Signal;HPM_P1;HPM_P2
2023/03/21 00:00:17;;;;;;;8.88;2.35;;;;;;;7.05;100.00;100536.00;5078643;28;20023;-77
2023/03/21 00:02:42;;;;;;;9.02;2.50;;;;;;;7.01;100.00;100541.25;5100331;28;20031;-77
2023/03/21 00:05:08;;;;;;;8.10;2.55;;;;;;;7.04;100.00;100535.16;5085304;27;20042;-78
2023/03/21 00:07:33;;;;;;;7.35;2.78;;;;;;;7.02;100.00;100531.00;5093858;28;20050;-78
2023/03/21 00:09:59;;;;;;;6.43;2.20;;;;;;;6.98;100.00;100516.94;5100804;27;20028;-78
2023/03/21 00:12:24;;;;;;;7.07;2.50;;;;;;;7.00;100.00;100511.97;5075022;28;20027;-77
2023/03/21 00:14:52;;;;;;;7.85;2.40;;;;;;;7.01;100.00;100508.09;5114566;27;20024;-78
2023/03/21 00:17:21;;;;;;;8.38;2.88;;;;;;;7.02;100.00;100503.41;5082489;28;20085;-78
2023/03/21 00:19:47;;;;;;;8.38;2.72;;;;;;;7.02;100.00;100506.16;5080374;28;20518;-78
2023/03/21 00:22:13;;;;;;;7.13;2.40;;;;;;;7.00;100.00;100492.66;5084765;28;20103;-78
2023/03/21 00:24:38;;;;;;;9.07;2.47;;;;;;;7.04;100.00;100491.00;5116160;27;20487;-78
2023/03/21 00:27:04;;;;;;;7.90;2.70;;;;;;;7.05;100.00;100489.06;5101160;27;20132;-78
2023/03/21 00:29:29;;;;;;;8.43;2.55;;;;;;;7.05;100.00;100483.53;5099991;28;20039;-77
2023/03/21 00:31:55;;;;;;;8.43;2.42;;;;;;;7.06;100.00;100486.03;5086536;28;20484;-78
2023/03/21 00:34:20;;;;;;;5.32;2.40;;;;;;;7.08;100.00;100491.31;5065143;28;20024;-77
2023/03/21 00:36:46;;;;;;;8.95;3.13;;;;;;;7.11;100.00;100480.53;5077005;28;20050;-78
2023/03/21 00:39:13;;;;;;;8.15;3.30;;;;;;;7.12;100.00;100484.13;5082685;27;20035;-78
2023/03/21 00:41:38;;;;;;;10.45;2.42;;;;;;;7.15;100.00;100464.22;5115279;27;20395;-78
2023/03/21 00:44:04;;;;;;;9.05;3.15;;;;;;;7.17;100.00;100467.56;5086623;27;20039;-78
2023/03/21 00:46:29;;;;;;;11.73;2.50;;;;;;;7.19;100.00;100468.13;5076408;28;20044;-78
2023/03/21 00:48:55;;;;;;;9.15;2.63;;;;;;;7.21;100.00;100468.66;5061005;28;20039;-78
2023/03/21 00:51:25;;;;;;;8.88;2.53;;;;;;;7.22;100.00;100470.34;5095861;27;20021;-78
2023/03/21 00:53:57;;;;;;;6.90;2.33;;;;;;;7.28;100.00;100463.72;5078231;28;20024;-78
2023/03/21 00:56:22;;;;;;;7.57;2.40;;;;;;;7.25;100.00;100469.78;5066447;28;20023;-78
2023/03/21 00:58:48;;;;;;;9.70;2.42;;;;;;;7.28;100.00;100476.72;5087001;27;20034;-78
2023/03/21 01:01:13;;;;;;;9.02;2.83;;;;;;;7.27;100.00;100472.25;5101682;27;20031;-78
2023/03/21 01:03:46;;;;;;;10.30;2.63;;;;;;;7.31;100.00;100479.75;5078599;28;20027;-78
2023/03/21 01:06:12;;;;;;;9.13;2.88;;;;;;;7.30;100.00;100460.66;5085328;27;20100;-78
2023/03/21 01:08:39;;;;;;;9.05;2.55;;;;;;;7.32;100.00;100450.19;5075294;28;20418;-78
2023/03/21 01:11:10;;;;;;;5.20;2.20;;;;;;;7.30;100.00;100453.22;5073542;27;20035;-78
2023/03/21 01:13:36;;;;;;;10.02;2.83;;;;;;;7.34;100.00;100456.28;5083022;28;20039;-78
2023/03/21 01:16:04;;;;;;;6.10;2.10;;;;;;;7.32;100.00;100453.75;5087472;27;20048;-78
2023/03/21 01:18:29;;;;;;;6.78;2.53;;;;;;;7.34;100.00;100459.03;5078180;28;20027;-78
2023/03/21 01:20:56;;;;;;;7.32;2.83;;;;;;;7.33;100.00;100451.84;5097269;28;20024;-78
2023/03/21 01:23:21;;;;;;;12.20;2.40;;;;;;;7.34;100.00;100451.56;5065304;28;20403;-78
2023/03/21 01:25:47;;;;;;;5.43;2.05;;;;;;;7.37;100.00;100448.25;5061537;28;20036;-78
2023/03/21 01:28:13;;;;;;;13.55;2.70;;;;;;;7.37;100.00;100444.66;5076515;27;20102;-78
2023/03/21 01:30:38;;;;;;;6.53;1.98;;;;;;;7.41;100.00;100447.69;5100381;27;20528;-78
2023/03/21 01:33:04;;;;;;;9.90;2.28;;;;;;;7.41;100.00;100445.78;5073515;27;20046;-78
2023/03/21 01:35:29;;;;;;;6.10;2.50;;;;;;;7.44;100.00;100447.16;5100550;27;20019;-78
2023/03/21 01:37:55;;;;;;;6.57;2.40;;;;;;;7.46;100.00;100431.13;5067178;27;20030;-78
2023/03/21 01:40:24;;;;;;;8.18;2.55;;;;;;;7.48;100.00;100446.34;5087232;28;20045;-78
2023/03/21 01:42:50;;;;;;;7.18;2.42;;;;;;;7.53;100.00;100443.59;5065482;27;20157;-78
2023/03/21 01:45:53;;;;;;;11.07;2.65;;;;;;;7.53;100.00;100437.22;5084510;27;20062;-78
2023/03/21 01:48:19;;;;;;;13.18;2.50;;;;;;;7.54;100.00;100431.41;5118794;27;20043;-78
2023/03/21 01:50:45;;;;;;;10.93;2.53;;;;;;;7.58;100.00;100423.41;5098311;28;20036;-78
2023/03/21 01:53:10;;;;;;;8.50;2.35;;;;;;;7.58;100.00;100420.66;5075537;28;20020;-78
2023/03/21 01:55:35;;;;;;;7.25;2.20;;;;;;;7.58;100.00;100417.88;5093645;28;20028;-78
2023/03/21 01:58:03;;;;;;;9.18;2.53;;;;;;;7.60;100.00;100415.66;5083726;27;20066;-78
2023/03/21 02:00:30;;;;;;;8.73;2.35;;;;;;;7.58;100.00;100404.91;5068864;28;20023;-78
2023/03/21 02:02:56;;;;;;;7.95;2.25;;;;;;;7.60;100.00;100405.47;5098914;27;20023;-78
2023/03/21 02:05:29;;;;;;;5.55;1.90;;;;;;;7.63;100.00;100404.03;5078619;27;20027;-78
2023/03/21 02:07:54;;;;;;;7.50;2.10;;;;;;;7.60;100.00;100394.41;5076398;27;20114;-78
2023/03/21 02:10:20;;;;;;;7.35;2.33;;;;;;;7.62;100.00;100380.28;5075303;28;20031;-78
2023/03/21 02:12:45;;;;;;;6.45;2.35;;;;;;;7.60;100.00;100380.59;5076842;27;20032;-78
2023/03/21 02:15:11;;;;;;;8.75;2.55;;;;;;;7.62;100.00;100383.06;5101410;27;20072;-78
2023/03/21 02:17:57;;;;;;;5.20;2.10;;;;;;;7.63;100.00;100384.69;5100631;27;20045;-78
2023/03/21 02:20:53;;;;;;;5.07;1.95;;;;;;;7.61;100.00;100378.63;5091362;28;20062;-78
2023/03/21 02:23:43;;;;;;;9.70;2.35;;;;;;;7.62;100.00;100374.75;5093535;27;20067;-78
2023/03/21 02:26:28;;;;;;;11.55;2.13;;;;;;;7.65;100.00;100378.91;5109037;27;20023;-78
2023/03/21 02:29:05;;;;;;;7.50;2.05;;;;;;;7.60;100.00;100371.44;5116788;28;20603;-78
2023/03/21 02:31:39;;;;;;;6.50;1.90;;;;;;;7.59;100.00;100370.63;5088969;28;20035;-78
2023/03/21 02:34:34;;;;;;;8.23;2.50;;;;;;;7.60;100.00;100365.91;5097378;27;20042;-78
2023/03/21 02:37:06;;;;;;;11.23;2.25;;;;;;;7.59;100.00;100362.31;5098343;28;20035;-78
2023/03/21 02:39:50;;;;;;;7.73;2.43;;;;;;;7.57;100.00;100369.22;5073122;28;20062;-78
2023/03/21 02:42:17;;;;;;;9.93;2.00;;;;;;;7.57;100.00;100372.81;5117653;27;20934;-78
2023/03/21 02:44:55;;;;;;;7.78;2.08;;;;;;;7.53;100.00;100355.16;5077775;28;20123;-78
2023/03/21 02:47:23;;;;;;;7.90;1.80;;;;;;;7.55;100.00;100357.63;5101126;27;20043;-78
2023/03/21 02:49:48;;;;;;;5.25;2.17;;;;;;;7.55;100.00;100358.47;5117920;27;20035;-78
2023/03/21 02:52:19;;;;;;;6.63;1.90;;;;;;;7.53;100.00;100366.19;5091589;27;20135;-78
2023/03/21 02:54:46;;;;;;;8.70;2.10;;;;;;;7.55;100.00;100357.63;5063529;27;20550;-78
2023/03/21 02:57:12;;;;;;;8.95;2.60;;;;;;;7.56;100.00;100356.53;5084090;27;20488;-78
2023/03/21 02:59:37;;;;;;;7.18;2.85;;;;;;;7.58;100.00;100346.84;5083210;28;20091;-78
2023/03/21 03:02:03;;;;;;;10.38;2.28;;;;;;;7.57;100.00;100339.66;5100108;28;20031;-78
2023/03/21 03:04:28;;;;;;;6.82;2.05;;;;;;;7.58;100.00;100346.03;5064089;28;20028;-78
2023/03/21 03:06:57;;;;;;;6.55;2.15;;;;;;;7.56;100.00;100335.25;5063978;28;20639;-78
2023/03/21 03:09:29;;;;;;;9.35;2.20;;;;;;;7.58;100.00;100340.50;5096361;28;20131;-78
2023/03/21 03:12:19;;;;;;;8.38;2.42;;;;;;;7.60;100.00;100336.34;5079806;28;20028;-78
2023/03/21 03:14:52;;;;;;;8.95;2.10;;;;;;;7.61;100.00;100317.84;5100205;28;20080;-78
2023/03/21 03:17:24;;;;;;;6.20;2.03;;;;;;;7.61;100.00;100328.88;5096920;28;20384;-78
2023/03/21 03:19:58;;;;;;;;;;;;;;;7.62;100.00;100325.00;5088809;28;20104;-78
2023/03/21 03:22:27;;;;;;;9.73;2.40;;;;;;;7.62;100.00;100322.25;5117644;28;19907;-78
2023/03/21 03:25:02;;;;;;;9.60;2.35;;;;;;;7.64;100.00;100333.03;5100342;28;20483;-77
2023/03/21 03:27:46;;;;;;;8.82;2.33;;;;;;;7.65;100.00;100327.22;5100377;28;20036;-78
2023/03/21 03:30:11;;;;;;;7.40;2.03;;;;;;;7.66;100.00;100339.94;5080156;28;20046;-78
2023/03/21 03:32:49;;;;;;;6.85;2.20;;;;;;;7.69;100.00;100330.22;5086632;28;20440;-78
2023/03/21 03:35:16;;;;;;;7.85;2.15;;;;;;;7.70;100.00;100334.69;5097079;28;20107;-79
2023/03/21 03:37:42;;;;;;;5.85;2.42;;;;;;;7.71;100.00;100345.44;5083360;28;20432;-79
2023/03/21 03:40:15;;;;;;;3.72;2.00;;;;;;;7.70;100.00;100346.56;5099724;28;20028;-79
2023/03/21 03:42:50;;;;;;;9.80;2.67;;;;;;;7.75;100.00;100341.03;5091468;28;20035;-79
2023/03/21 03:45:16;;;;;;;9.77;2.70;;;;;;;7.74;100.00;100321.94;5080072;27;20074;-79
2023/03/21 03:48:06;;;;;;;5.85;2.20;;;;;;;7.75;100.00;100337.44;5082587;28;20044;-79
2023/03/21 03:50:36;;;;;;;5.63;2.53;;;;;;;7.76;100.00;100326.09;5097968;28;20163;-78
2023/03/21 03:53:22;;;;;;;7.63;2.20;;;;;;;7.81;100.00;100317.78;5070978;28;20024;-79
2023/03/21 03:55:48;;;;;;;7.45;2.25;;;;;;;7.77;100.00;100294.59;5109617;27;20039;-79
2023/03/21 03:58:18;;;;;;;5.00;1.90;;;;;;;7.81;100.00;100292.06;5087080;27;20095;-79
2023/03/21 04:00:44;;;;;;;6.07;2.17;;;;;;;7.83;100.00;100326.63;5083854;28;20107;-79
2023/03/21 04:03:09;;;;;;;8.98;2.67;;;;;;;7.83;100.00;100342.41;5058717;28;20095;-79
2023/03/21 04:05:35;;;;;;;9.38;2.38;;;;;;;7.83;100.00;100343.22;5078746;28;20495;-79
2023/03/21 04:08:01;;;;;;;3.22;1.73;;;;;;;7.84;100.00;100344.88;5096301;27;20395;-79
2023/03/21 04:10:26;;;;;;;7.82;2.60;;;;;;;7.87;100.00;100359.25;5073721;28;20024;-79
2023/03/21 04:12:52;;;;;;;5.45;2.15;;;;;;;7.84;100.00;100360.63;5078621;27;20031;-79
2023/03/21 04:15:18;;;;;;;6.43;1.88;;;;;;;7.85;100.00;100356.75;5086811;27;20646;-79
2023/03/21 04:17:44;;;;;;;8.60;2.58;;;;;;;7.87;100.00;100353.72;5066841;28;20027;-78
2023/03/21 04:20:10;;;;;;;5.70;2.15;;;;;;;7.90;100.00;100356.75;5092041;28;20033;-78
2023/03/21 04:22:35;;;;;;;5.05;2.28;;;;;;;7.89;100.00;100340.44;5112479;28;20619;-79
2023/03/21 04:25:01;;;;;;;5.35;2.13;;;;;;;7.88;100.00;100331.31;5093387;27;20540;-78
2023/03/21 04:27:27;;;;;;;5.05;1.90;;;;;;;7.89;100.00;100326.63;5099635;28;20042;-79
2023/03/21 04:29:52;;;;;;;7.75;2.38;;;;;;;7.91;100.00;100332.69;5098875;27;20031;-78
2023/03/21 04:32:18;;;;;;;5.82;2.30;;;;;;;7.91;100.00;100332.69;5089689;27;20038;-78
2023/03/21 04:34:48;;;;;;;5.65;2.15;;;;;;;7.95;100.00;100331.03;5088251;28;20046;-79
2023/03/21 04:37:18;;;;;;;8.30;2.42;;;;;;;7.94;100.00;100349.56;5063454;28;20031;-79
2023/03/21 04:39:45;;;;;;;6.47;2.13;;;;;;;7.96;100.00;100354.78;5079610;28;20024;-78
2023/03/21 04:42:13;;;;;;;6.47;2.40;;;;;;;7.98;100.00;100345.09;5063006;28;20106;-78
2023/03/21 04:44:39;;;;;;;8.07;2.67;;;;;;;8.01;100.00;100347.31;5073479;27;20031;-78
2023/03/21 04:47:05;;;;;;;7.53;2.40;;;;;;;8.03;100.00;100335.97;5102866;27;20047;-78
2023/03/21 04:49:30;;;;;;;8.55;2.58;;;;;;;8.01;100.00;100341.78;5099276;28;20036;-78
2023/03/21 04:51:56;;;;;;;4.45;1.95;;;;;;;8.03;100.00;100336.81;5099021;28;20118;-78
2023/03/21 04:54:21;;;;;;;6.28;2.00;;;;;;;8.05;100.00;100334.59;5085841;27;20023;-78
2023/03/21 04:56:47;;;;;;;6.53;2.10;;;;;;;8.05;100.00;100342.03;5068199;27;20027;-78
2023/03/21 04:59:14;;;;;;;8.02;2.20;;;;;;;8.07;100.00;100337.88;5086143;27;20031;-79
2023/03/21 05:01:40;;;;;;;5.88;2.10;;;;;;;8.07;100.00;100337.88;5074476;28;20039;-78
2023/03/21 05:04:05;;;;;;;7.88;2.30;;;;;;;8.10;100.00;100332.91;5098991;28;20028;-78
2023/03/21 05:06:31;;;;;;;7.72;2.40;;;;;;;8.12;100.00;100333.47;5092593;28;20035;-78
2023/03/21 05:09:00;;;;;;;4.75;1.85;;;;;;;8.13;100.00;100327.63;5053275;28;20506;-78
2023/03/21 05:11:31;;;;;;;5.82;1.90;;;;;;;8.15;100.00;100330.94;5078442;28;20024;-78
2023/03/21 05:14:00;;;;;;;7.18;2.38;;;;;;;8.16;100.00;100329.00;5077510;27;20031;-78
2023/03/21 05:16:29;;;;;;;6.55;2.20;;;;;;;8.17;100.00;100330.69;5093223;28;20024;-78
2023/03/21 05:19:03;;;;;;;6.80;2.25;;;;;;;8.18;100.00;100319.31;5086912;27;20038;-78
2023/03/21 05:21:32;;;;;;;5.32;2.20;;;;;;;8.19;100.00;100329.28;5087326;27;20023;-78
2023/03/21 05:24:02;;;;;;;7.53;2.80;;;;;;;8.20;100.00;100322.63;5086600;27;20035;-78
2023/03/21 05:26:28;;;;;;;8.50;2.47;;;;;;;8.20;100.00;100324.56;5080409;27;20038;-79
2023/03/21 05:28:53;;;;;;;8.10;2.60;;;;;;;8.20;100.00;100314.34;5102316;27;20019;-78
2023/03/21 05:31:19;;;;;;;4.68;2.38;;;;;;;8.20;100.00;100317.09;5060902;28;20024;-78
2023/03/21 05:33:45;;;;;;;9.35;3.08;;;;;;;8.21;100.00;100315.97;5079585;27;20035;-78
2023/03/21 05:36:10;;;;;;;10.88;2.80;;;;;;;8.22;100.00;100320.41;5068539;27;20167;-78
2023/03/21 05:38:36;;;;;;;8.93;3.20;;;;;;;8.23;100.00;100315.72;5101800;27;20450;-78
2023/03/21 05:41:02;;;;;;;6.07;2.60;;;;;;;8.21;100.00;100315.97;5079525;27;20036;-78
2023/03/21 05:43:27;;;;;;;6.88;2.85;;;;;;;8.24;100.00;100309.88;5090930;27;20084;-78
2023/03/21 05:45:53;;;;;;;7.13;3.03;;;;;;;8.26;100.00;100304.06;5098242;28;20027;-78
2023/03/21 05:48:18;;;;;;;7.10;2.33;;;;;;;8.23;100.00;100308.22;5084664;27;20419;-78
2023/03/21 05:50:44;;;;;;;4.28;2.38;;;;;;;8.25;100.00;100302.44;5068691;27;20244;-79
2023/03/21 05:53:09;;;;;;;5.68;2.45;;;;;;;8.25;100.00;100305.19;5098609;27;20054;-78
2023/03/21 05:55:35;;;;;;;5.93;2.70;;;;;;;8.24;100.00;100298.81;5081114;28;20024;-78
2023/03/21 05:58:00;;;;;;;9.15;3.08;;;;;;;8.24;100.00;100300.75;5075386;27;20120;-78
2023/03/21 06:00:26;;;;;;;5.45;2.80;;;;;;;8.22;100.00;100306.59;5084945;27;20030;-79
2023/03/21 06:02:52;;;;;;;6.05;2.53;;;;;;;8.23;100.00;100302.69;5067088;27;20089;-78
2023/03/21 06:05:17;;;;;;;6.18;3.00;;;;;;;8.24;100.00;100304.34;5064368;28;20424;-78
2023/03/21 06:07:42;;;;;;;7.18;3.10;;;;;;;8.25;100.00;100308.78;5076091;27;20035;-80
2023/03/21 06:10:09;;;;;;;5.88;2.63;;;;;;;8.25;100.00;100306.03;5084510;27;20019;-80
2023/03/21 06:12:35;;;;;;;9.25;2.97;;;;;;;8.25;100.00;100303.25;5098939;27;20519;-80
2023/03/21 06:15:01;;;;;;;7.90;3.20;;;;;;;8.27;100.00;100300.19;5067661;27;20019;-80
2023/03/21 06:17:26;;;;;;;9.27;3.38;;;;;;;8.28;100.00;100308.22;5084276;27;20034;-80
2023/03/21 06:19:52;;;;;;;12.13;3.63;;;;;;;8.33;100.00;100306.53;5076396;28;20023;-80
2023/03/21 06:22:17;;;;;;;6.28;3.30;;;;;;;8.31;100.00;100300.47;5095987;27;20514;-80
2023/03/21 06:24:43;;;;;;;8.63;3.10;;;;;;;8.33;100.00;100306.53;5101015;27;20030;-80
2023/03/21 06:27:08;;;;;;;6.28;2.92;;;;;;;8.33;100.00;100306.53;5083519;28;20031;-80
2023/03/21 06:29:34;;;;;;;6.65;3.15;;;;;;;8.34;100.00;100313.72;5084564;27;20092;-80
2023/03/21 06:32:00;;;;;;;7.38;3.10;;;;;;;8.36;100.00;100305.94;5101158;27;20546;-80
2023/03/21 06:34:25;;;;;;;10.13;3.83;;;;;;;8.40;100.00;100298.78;5091619;28;20020;-80
2023/03/21 06:36:53;;;;;;;8.70;3.55;;;;;;;8.42;100.00;100302.09;5062870;28;20023;-80
2023/03/21 06:39:19;;;;;;;10.55;3.80;;;;;;;8.45;100.00;100304.28;5074441;28;20051;-80
2023/03/21 06:41:44;;;;;;;7.18;3.30;;;;;;;8.45;100.00;100299.56;5093226;27;20041;-80
2023/03/21 06:44:10;;;;;;;8.43;3.72;;;;;;;8.47;100.00;100313.97;5101467;27;20082;-80
2023/03/21 06:46:35;;;;;;;8.52;3.88;;;;;;;8.49;100.00;100308.13;5080266;28;20035;-80
2023/03/21 06:49:01;;;;;;;8.13;3.60;;;;;;;8.52;100.00;100303.97;5097354;28;20097;-80
2023/03/21 06:51:26;;;;;;;7.45;3.55;;;;;;;8.55;100.00;100304.22;5067414;28;20068;-80
2023/03/21 06:53:52;;;;;;;7.47;4.43;;;;;;;8.58;100.00;100300.91;5065431;27;20460;-80
2023/03/21 06:56:18;;;;;;;10.10;3.58;;;;;;;8.61;100.00;100302.25;5083731;27;20034;-80
2023/03/21 06:58:44;;;;;;;7.40;3.67;;;;;;;8.62;100.00;100299.19;5055089;27;20031;-81
2023/03/21 07:01:09;;;;;;;8.52;4.20;;;;;;;8.68;100.00;100298.06;5080138;28;20038;-80
2023/03/21 07:03:36;;;;;;;6.55;3.30;;;;;;;8.70;100.00;100300.56;5084066;28;20034;-80
2023/03/21 07:06:07;;;;;;;8.90;3.78;;;;;;;8.73;100.00;100299.97;5100677;28;20562;-80
2023/03/21 07:08:33;;;;;;;7.50;3.60;;;;;;;8.79;100.00;100306.31;5100794;28;20034;-78
2023/03/21 07:10:58;;;;;;;7.90;3.17;;;;;;;8.80;100.00;100299.63;5083078;28;20053;-79
2023/03/21 07:13:24;;;;;;;8.05;3.67;;;;;;;8.87;100.00;100305.69;5068152;27;20015;-78
2023/03/21 07:15:49;;;;;;;8.18;3.13;;;;;;;8.88;100.00;100307.34;5104291;27;20016;-79
2023/03/21 07:18:15;;;;;;;10.55;3.45;;;;;;;8.93;100.00;100310.06;5105077;27;20137;-78
2023/03/21 07:20:40;;;;;;;6.38;3.20;;;;;;;8.96;100.00;100306.72;5069196;27;20024;-78
2023/03/21 07:23:06;;;;;;;5.65;3.03;;;;;;;9.01;100.00;100320.53;5087669;27;20364;-78
2023/03/21 07:25:31;;;;;;;6.60;3.13;;;;;;;9.04;100.00;100316.38;5087310;27;20027;-79
2023/03/21 07:27:57;;;;;;;4.07;3.00;;;;;;;9.09;100.00;100313.56;5066993;28;20023;-78
2023/03/21 07:30:22;;;;;;;5.03;2.40;;;;;;;9.12;100.00;100313.81;5087487;27;20042;-79
2023/03/21 07:32:48;;;;;;;5.70;2.67;;;;;;;9.17;100.00;100311.00;5102340;27;20064;-78
2023/03/21 07:35:15;;;;;;;5.13;2.28;;;;;;;9.20;100.00;100306.81;5083794;28;20023;-78
2023/03/21 07:37:40;;;;;;;5.65;2.10;;;;;;;9.27;100.00;100320.34;5080850;28;20111;-78
2023/03/21 07:40:09;;;;;;;6.00;2.60;;;;;;;9.33;100.00;100316.41;5113161;27;20035;-78
2023/03/21 07:42:35;;;;;;;5.38;2.33;;;;;;;9.37;100.00;100323.84;5088295;28;20043;-78
2023/03/21 07:45:01;;;;;;;6.45;2.63;;;;;;;9.44;100.00;100329.06;5086637;27;20042;-76
2023/03/21 07:47:28;;;;;;;5.70;2.63;;;;;;;9.50;100.00;100321.50;5098172;27;20039;-75
2023/03/21 07:49:53;;;;;;;8.20;3.53;;;;;;;9.57;100.00;100336.69;5097231;27;20062;-75
2023/03/21 07:52:19;;;;;;;9.77;3.10;;;;;;;9.62;100.00;100333.88;5103536;27;20072;-75
2023/03/21 07:54:44;;;;;;;6.70;2.95;;;;;;;9.71;100.00;100338.78;5070316;27;20035;-76
2023/03/21 07:57:10;;;;;;;4.20;2.72;;;;;;;9.77;100.00;100335.66;5113847;28;20594;-75
2023/03/21 07:59:36;;;;;;;5.35;2.35;;;;;;;9.81;100.00;100342.28;5103856;27;20047;-76
2023/03/21 08:02:01;;;;;;;5.45;2.63;;;;;;;9.87;100.00;100339.47;5103997;27;20783;-75
2023/03/21 08:04:27;;;;;;;3.33;2.50;;;;;;;9.92;100.00;100340.25;5120811;27;20031;-75
2023/03/21 08:06:52;;;;;;;6.60;2.70;;;;;;;9.98;100.00;100341.03;5083501;27;20103;-75
2023/03/21 08:09:18;;;;;;;4.63;2.38;;;;;;;10.00;100.00;100342.38;5100801;27;20024;-75
2023/03/21 08:11:44;;;;;;;6.90;2.95;;;;;;;10.05;100.00;100345.06;5069728;27;20479;-72
2023/03/21 08:14:09;;;;;;;4.10;2.20;;;;;;;10.08;100.00;100346.44;5086794;27;20042;-78
2023/03/21 08:16:35;;;;;;;5.18;2.80;;;;;;;10.13;100.00;100351.94;5070219;27;20038;-78
2023/03/21 08:19:00;;;;;;;5.93;2.90;;;;;;;10.18;100.00;100353.84;5100917;27;20034;-78
2023/03/21 08:21:26;;;;;;;3.92;2.10;;;;;;;10.22;100.00;100352.97;5083029;28;20027;-78
2023/03/21 08:23:52;;;;;;;5.38;2.40;;;;;;;10.27;100.00;100349.31;5103602;27;20023;-78
2023/03/21 08:26:18;;;;;;;4.28;3.63;;;;;;;10.35;100.00;100345.88;5081876;28;20039;-78
2023/03/21 08:28:44;;;;;;;4.63;2.60;;;;;;;10.38;100.00;100344.47;5079318;27;20028;-78
2023/03/21 08:31:11;;;;;;;5.07;3.53;;;;;;;10.44;100.00;100351.59;5057575;28;20108;-78
2023/03/21 08:33:36;;;;;;;5.57;2.53;;;;;;;10.48;100.00;100356.25;5082405;28;20032;-77
2023/03/21 08:36:02;;;;;;;6.78;2.45;;;;;;;10.57;100.00;100361.16;5100583;27;20024;-77
2023/03/21 08:38:29;;;;;;;3.13;2.35;;;;;;;10.60;100.00;100357.78;5068385;28;20035;-77
2023/03/21 08:40:55;;;;;;;5.40;2.13;;;;;;;10.65;100.00;100358.53;5060493;27;20125;-77
2023/03/21 08:43:21;;;;;;;3.05;2.00;;;;;;;10.71;100.00;100360.13;5091133;27;20038;-77
2023/03/21 08:45:47;;;;;;;3.85;1.70;;;;;;;10.81;100.00;100363.88;5085579;27;20039;-78
2023/03/21 08:48:13;;;;;;;6.35;1.70;;;;;;;10.88;100.00;100367.13;5085930;27;20057;-78
2023/03/21 08:50:38;;;;;;;3.70;1.80;;;;;;;10.97;100.00;100376.44;5083081;28;20027;-77
2023/03/21 08:53:04;;;;;;;5.68;2.15;;;;;;;11.08;100.00;100363.22;5091325;27;20038;-78
2023/03/21 08:55:31;;;;;;;6.10;1.40;;;;;;;11.16;100.00;100354.19;5085908;27;20023;-78
2023/03/21 08:57:58;;;;;;;4.63;1.73;;;;;;;11.27;100.00;100355.69;5104045;27;20031;-78
2023/03/21 09:00:23;;;;;;;6.53;1.83;;;;;;;11.41;100.00;100355.75;5099013;28;20027;-77
2023/03/21 09:02:50;;;;;;;7.28;1.60;;;;;;;11.57;100.00;100357.13;5068807;27;20026;-78
2023/03/21 09:05:16;;;;;;;6.80;1.65;;;;;;;11.75;100.00;100343.47;5069285;27;20027;-78
2023/03/21 09:07:41;;;;;;;5.85;1.75;;;;;;;11.91;100.00;100349.63;5096378;27;20023;-78
2023/03/21 09:10:10;;;;;;;7.88;1.65;;;;;;;12.11;100.00;100345.63;5102076;27;20027;-78
2023/03/21 09:12:35;;;;;;;5.60;1.23;;;;;;;12.26;100.00;100332.22;5082968;27;20034;-78
2023/03/21 09:15:01;;;;;;;5.22;1.80;;;;;;;12.47;100.00;100340.16;5080098;28;20408;-78
2023/03/21 09:17:31;;;;;;;6.00;1.20;;;;;;;12.68;100.00;100344.16;5102534;27;20669;-78
2023/03/21 09:19:58;;;;;;;6.80;1.60;;;;;;;12.90;100.00;100345.34;5069437;27;20027;-78
2023/03/21 09:22:24;;;;;;;6.80;1.13;;;;;;;13.14;100.00;100350.63;5096887;27;20076;-69
2023/03/21 09:24:50;;;;;;;8.30;1.75;;;;;;;13.35;100.00;100351.81;5078874;28;20054;-78
2023/03/21 09:27:22;;;;;;;6.43;1.42;;;;;;;13.51;100.00;100346.69;5084358;27;20115;-78
2023/03/21 09:29:50;;;;;;;5.82;1.10;;;;;;;13.67;100.00;100351.88;5086160;27;20031;-78
2023/03/21 09:32:17;;;;;;;6.68;1.60;;;;;;;13.80;100.00;100356.56;5071358;27;20403;-78
2023/03/21 09:34:43;;;;;;;6.15;1.20;;;;;;;13.92;100.00;100350.38;5066393;28;20169;-78
2023/03/21 09:37:15;;;;;;;5.30;1.30;;;;;;;14.04;100.00;100339.41;5056432;28;20043;-78
2023/03/21 09:39:41;;;;;;;5.80;1.40;;;;;;;14.14;100.00;100349.50;5074282;28;20033;-78
2023/03/21 09:42:31;;;;;;;7.63;1.58;;;;;;;14.26;100.00;100346.91;5091933;27;20035;-78
2023/03/21 09:45:17;;;;;;;6.35;1.05;;;;;;;14.41;100.00;100354.88;5116496;27;20031;-78
2023/03/21 09:47:51;;;;;;;5.00;1.52;;;;;;;14.59;100.00;100340.97;5077572;28;20043;-78
2023/03/21 09:50:20;;;;;;;9.57;1.35;;;;;;;14.78;100.00;100338.69;5079163;28;20059;-78
2023/03/21 09:52:53;;;;;;;7.50;1.58;;;;;;;14.91;100.00;100334.94;5079594;28;20025;-78
2023/03/21 09:55:30;;;;;;;6.20;1.27;;;;;;;15.08;100.00;100344.50;5079816;28;20076;-78
2023/03/21 09:58:03;;;;;;;9.75;1.60;;;;;;;15.20;100.00;100341.84;5062202;28;20039;-79
2023/03/21 10:00:31;;;;;;;;;;;;;;;15.37;100.00;100343.81;5094588;28;20115;-79
2023/03/21 10:02:58;;;;;;;7.60;1.42;;;;;;;15.50;100.00;100342.00;5051031;28;19908;-78
2023/03/21 10:05:28;;;;;;;12.40;1.77;;;;;;;15.59;100.00;100342.81;5081445;28;20030;-79
2023/03/21 10:07:57;;;;;;;10.52;1.88;;;;;;;15.67;100.00;100344.78;5085196;28;20510;-78
2023/03/21 10:10:27;;;;;;;8.20;1.42;;;;;;;15.75;100.00;100345.94;5085952;28;20031;-79
2023/03/21 10:12:53;;;;;;;9.93;1.75;;;;;;;15.82;100.00;100346.25;5080683;28;20031;-78
2023/03/21 10:15:21;;;;;;;6.63;0.80;;;;;;;15.88;100.00;100355.28;5080750;28;20028;-79
2023/03/21 10:17:55;;;;;;;10.60;1.80;;;;;;;15.90;100.00;100353.81;5077258;28;20020;-78
2023/03/21 10:20:33;;;;;;;5.47;1.20;;;;;;;15.94;100.00;100359.59;5090026;28;20020;-78
2023/03/21 10:23:00;;;;;;;7.55;1.25;;;;;;;15.95;100.00;100356.44;5081028;28;20047;-78
2023/03/21 10:25:30;;;;;;;13.35;1.45;;;;;;;15.95;100.00;100347.22;5080343;28;20034;-79
2023/03/21 10:27:55;;;;;;;7.35;1.35;;;;;;;16.01;100.00;100348.66;5077926;28;20085;-79
2023/03/21 10:30:32;;;;;;;9.85;1.50;;;;;;;16.04;100.00;100342.38;5072728;28;20019;-78
2023/03/21 10:33:01;;;;;;;8.85;1.52;;;;;;;16.08;100.00;100351.78;5062876;28;20490;-79
2023/03/21 10:35:26;;;;;;;9.70;1.65;;;;;;;16.10;100.00;100346.66;5078563;28;20039;-78
2023/03/21 10:37:52;;;;;;;10.20;1.80;;;;;;;16.15;100.00;100340.88;5063999;28;20106;-79
2023/03/21 10:40:17;;;;;;;8.38;1.50;;;;;;;16.24;100.00;100333.25;5079643;28;20030;-79
2023/03/21 10:42:43;;;;;;;7.32;1.40;;;;;;;16.35;100.00;100332.88;5063875;28;20089;-78
2023/03/21 10:45:18;;;;;;;10.15;1.25;;;;;;;16.46;100.00;100334.13;5090125;28;20032;-79
2023/03/21 10:47:46;;;;;;;10.32;1.50;;;;;;;16.59;100.00;100330.28;5087390;28;20043;-79
2023/03/21 10:50:14;;;;;;;9.90;1.58;;;;;;;16.74;100.00;100338.09;5080600;28;20092;-79
2023/03/21 10:52:50;;;;;;;13.95;2.15;;;;;;;16.90;100.00;100317.88;5080705;28;20027;-79
2023/03/21 10:55:20;;;;;;;10.75;1.80;;;;;;;17.01;100.00;100313.50;5063732;28;20043;-79
2023/03/21 10:57:46;;;;;;;15.07;2.10;;;;;;;17.13;100.00;100315.56;5080673;28;20084;-79
2023/03/21 11:00:18;;;;;;;10.23;1.63;;;;;;;17.20;100.00;100316.66;5096264;28;20059;-79
2023/03/21 11:02:46;;;;;;;7.53;1.43;;;;;;;17.28;100.00;100314.13;5058989;28;20116;-79
2023/03/21 11:05:21;;;;;;;14.57;2.25;;;;;;;17.30;100.00;100320.19;5060342;28;20021;-79
2023/03/21 11:07:47;;;;;;;10.43;1.45;;;;;;;17.28;100.00;100317.75;5080313;28;20036;-79
2023/03/21 11:10:15;;;;;;;11.70;1.73;;;;;;;17.28;100.00;100323.34;5096893;28;20057;-79
2023/03/21 11:12:40;;;;;;;10.57;1.65;;;;;;;17.24;100.00;100316.78;5063734;28;20027;-79
2023/03/21 11:15:27;;;;;;;12.02;1.90;;;;;;;17.16;100.00;100324.13;5060107;28;20499;-79
2023/03/21 11:17:52;;;;;;;8.98;1.55;;;;;;;17.10;100.00;100311.44;5077374;28;20361;-79
2023/03/21 11:20:18;;;;;;;7.22;1.30;;;;;;;17.06;100.00;100327.34;5080206;28;20056;-78
2023/03/21 11:22:43;;;;;;;11.77;1.88;;;;;;;17.01;100.00;100319.13;5083954;28;20020;-79
2023/03/21 11:25:17;;;;;;;10.23;1.33;;;;;;;17.00;100.00;100327.91;5083903;28;20498;-79